sensor_id;sensor_type;location;lat;lon;timestamp;temperature;humidity
16955;DHT22;8594;52.052;8.354;2023-09-12T00:00:27;22.80;99.90
16955;DHT22;8594;52.052;8.354;2023-09-12T00:02:54;22.60;99.90
16955;DHT22;8594;52.052;8.354;2023-09-12T00:05:21;22.40;99.90
16955;DHT22;8594;52.052;8.354;2023-09-12T00:07:51;22.50;99.90
16955;DHT22;8594;52.052;8.354;2023-09-12T00:10:19;22.50;99.90
16955;DHT22;8594;52.052;8.354;2023-09-12T00:12:46;22.60;99.90
16955;DHT22;8594;52.052;8.354;2023-09-12T00:15:13;22.50;99.90
16955;DHT22;8594;52.052;8.354;2023-09-12T00:17:39;22.80;99.90
16955;DHT22;8594;52.052;8.354;2023-09-12T00:20:07;22.80;99.90
16955;DHT22;8594;52.052;8.354;2023-09-12T00:22:34;22.80;99.90
16955;DHT22;8594;52.052;8.354;2023-09-12T00:25:03;22.90;99.90
16955;DHT22;8594;52.052;8.354;2023-09-12T00:27:30;23.00;99.90
16955;DHT22;8594;52.052;8.354;2023-09-12T00:29:57;23.00;99.90
16955;DHT22;8594;52.052;8.354;2023-09-12T00:32:24;23.00;99.90
16955;DHT22;8594;52.052;8.354;2023-09-12T00:34:51;23.00;99.90
16955;DHT22;8594;52.052;8.354;2023-09-12T00:37:18;23.30;99.90
16955;DHT22;8594;52.052;8.354;2023-09-12T00:39:45;23.50;99.90
16955;DHT22;8594;52.052;8.354;2023-09-12T00:42:14;23.70;99.90
16955;DHT22;8594;52.052;8.354;2023-09-12T00:44:40;23.70;99.90
16955;DHT22;8594;52.052;8.354;2023-09-12T00:47:08;23.50;99.90
16955;DHT22;8594;52.052;8.354;2023-09-12T00:49:38;23.00;99.90
16955;DHT22;8594;52.052;8.354;2023-09-12T00:52:06;22.70;99.90
16955;DHT22;8594;52.052;8.354;2023-09-12T00:54:34;22.70;99.90
16955;DHT22;8594;52.052;8.354;2023-09-12T00:57:01;22.50;99.90
16955;DHT22;8594;52.052;8.354;2023-09-12T00:59:29;22.00;99.90
16955;DHT22;8594;52.052;8.354;2023-09-12T01:01:57;22.00;99.90
16955;DHT22;8594;52.052;8.354;2023-09-12T01:04:25;21.90;99.90
16955;DHT22;8594;52.052;8.354;2023-09-12T01:06:53;22.00;99.90
16955;DHT22;8594;52.052;8.354;2023-09-12T01:09:20;21.90;99.90
16955;DHT22;8594;52.052;8.354;2023-09-12T01:11:47;22.00;99.90
16955;DHT22;8594;52.052;8.354;2023-09-12T01:14:14;22.10;99.90
16955;DHT22;8594;52.052;8.354;2023-09-12T01:16:42;22.20;99.90
16955;DHT22;8594;52.052;8.354;2023-09-12T01:19:10;22.40;99.90
16955;DHT22;8594;52.052;8.354;2023-09-12T01:25:13;22.60;99.90
16955;DHT22;8594;52.052;8.354;2023-09-12T01:28:02;22.60;99.90
16955;DHT22;8594;52.052;8.354;2023-09-12T01:30:32;22.50;99.90
16955;DHT22;8594;52.052;8.354;2023-09-12T01:33:02;22.60;99.90
16955;DHT22;8594;52.052;8.354;2023-09-12T01:35:29;22.70;99.90
16955;DHT22;8594;52.052;8.354;2023-09-12T01:37:56;22.90;99.90
16955;DHT22;8594;52.052;8.354;2023-09-12T01:40:28;22.90;99.90
16955;DHT22;8594;52.052;8.354;2023-09-12T01:43:04;23.10;99.90
16955;DHT22;8594;52.052;8.354;2023-09-12T01:45:33;23.30;99.90
16955;DHT22;8594;52.052;8.354;2023-09-12T01:48:03;23.10;99.90
16955;DHT22;8594;52.052;8.354;2023-09-12T01:50:33;23.00;99.90
16955;DHT22;8594;52.052;8.354;2023-09-12T01:53:00;23.00;99.90
16955;DHT22;8594;52.052;8.354;2023-09-12T01:55:28;23.00;99.90
16955;DHT22;8594;52.052;8.354;2023-09-12T01:57:55;23.00;99.90
16955;DHT22;8594;52.052;8.354;2023-09-12T02:00:24;23.00;99.90
16955;DHT22;8594;52.052;8.354;2023-09-12T02:02:51;23.10;99.90
16955;DHT22;8594;52.052;8.354;2023-09-12T02:05:21;23.20;99.90
16955;DHT22;8594;52.052;8.354;2023-09-12T02:07:49;23.30;99.90
16955;DHT22;8594;52.052;8.354;2023-09-12T02:10:16;23.40;99.90
16955;DHT22;8594;52.052;8.354;2023-09-12T02:12:43;23.40;99.90
16955;DHT22;8594;52.052;8.354;2023-09-12T02:15:10;23.20;99.90
16955;DHT22;8594;52.052;8.354;2023-09-12T02:17:39;23.10;99.90
16955;DHT22;8594;52.052;8.354;2023-09-12T02:20:08;22.80;99.90
16955;DHT22;8594;52.052;8.354;2023-09-12T02:22:36;22.50;99.90
16955;DHT22;8594;52.052;8.354;2023-09-12T02:25:04;22.50;99.90
16955;DHT22;8594;52.052;8.354;2023-09-12T02:27:32;22.50;99.90
16955;DHT22;8594;52.052;8.354;2023-09-12T02:29:59;22.50;99.90
16955;DHT22;8594;52.052;8.354;2023-09-12T02:32:26;22.50;99.90
16955;DHT22;8594;52.052;8.354;2023-09-12T02:34:54;22.70;99.90
16955;DHT22;8594;52.052;8.354;2023-09-12T02:37:22;22.70;99.90
16955;DHT22;8594;52.052;8.354;2023-09-12T02:39:49;22.80;99.90
16955;DHT22;8594;52.052;8.354;2023-09-12T02:42:16;22.60;99.90
16955;DHT22;8594;52.052;8.354;2023-09-12T02:44:43;22.70;99.90
16955;DHT22;8594;52.052;8.354;2023-09-12T02:47:09;22.40;99.90
16955;DHT22;8594;52.052;8.354;2023-09-12T02:49:36;22.50;99.90
16955;DHT22;8594;52.052;8.354;2023-09-12T02:52:05;22.40;99.90
16955;DHT22;8594;52.052;8.354;2023-09-12T02:54:32;22.10;99.90
16955;DHT22;8594;52.052;8.354;2023-09-12T02:56:58;22.10;99.90
16955;DHT22;8594;52.052;8.354;2023-09-12T02:59:25;22.00;99.90
16955;DHT22;8594;52.052;8.354;2023-09-12T03:01:52;22.00;99.90
16955;DHT22;8594;52.052;8.354;2023-09-12T03:04:19;22.10;99.90
16955;DHT22;8594;52.052;8.354;2023-09-12T03:06:46;22.10;99.90
16955;DHT22;8594;52.052;8.354;2023-09-12T03:09:14;22.00;99.90
16955;DHT22;8594;52.052;8.354;2023-09-12T03:11:42;22.10;99.90
16955;DHT22;8594;52.052;8.354;2023-09-12T03:14:09;22.10;99.90
16955;DHT22;8594;52.052;8.354;2023-09-12T03:16:36;22.10;99.90
16955;DHT22;8594;52.052;8.354;2023-09-12T03:19:04;22.00;99.90
16955;DHT22;8594;52.052;8.354;2023-09-12T03:21:31;22.00;99.90
16955;DHT22;8594;52.052;8.354;2023-09-12T03:23:57;21.90;99.90
16955;DHT22;8594;52.052;8.354;2023-09-12T03:26:26;22.00;99.90
16955;DHT22;8594;52.052;8.354;2023-09-12T03:28:53;22.00;99.90
16955;DHT22;8594;52.052;8.354;2023-09-12T03:31:20;22.00;99.90
16955;DHT22;8594;52.052;8.354;2023-09-12T03:33:46;22.10;99.90
16955;DHT22;8594;52.052;8.354;2023-09-12T03:36:16;22.20;99.90
16955;DHT22;8594;52.052;8.354;2023-09-12T03:38:43;21.90;99.90
16955;DHT22;8594;52.052;8.354;2023-09-12T03:41:10;21.40;99.90
16955;DHT22;8594;52.052;8.354;2023-09-12T03:43:38;21.20;99.90
16955;DHT22;8594;52.052;8.354;2023-09-12T03:46:05;21.20;99.90
16955;DHT22;8594;52.052;8.354;2023-09-12T03:48:33;21.10;99.90
16955;DHT22;8594;52.052;8.354;2023-09-12T03:51:02;21.20;99.90
16955;DHT22;8594;52.052;8.354;2023-09-12T03:53:29;21.20;99.90
16955;DHT22;8594;52.052;8.354;2023-09-12T03:55:57;21.20;99.90
16955;DHT22;8594;52.052;8.354;2023-09-12T03:58:25;21.10;99.90
16955;DHT22;8594;52.052;8.354;2023-09-12T04:00:53;20.90;99.90
16955;DHT22;8594;52.052;8.354;2023-09-12T04:03:20;21.10;99.90
16955;DHT22;8594;52.052;8.354;2023-09-12T04:05:47;21.10;99.90
16955;DHT22;8594;52.052;8.354;2023-09-12T04:08:14;21.20;99.90
16955;DHT22;8594;52.052;8.354;2023-09-12T04:10:41;21.00;99.90
16955;DHT22;8594;52.052;8.354;2023-09-12T04:13:08;20.70;99.90
16955;DHT22;8594;52.052;8.354;2023-09-12T04:15:35;20.90;99.90
16955;DHT22;8594;52.052;8.354;2023-09-12T04:18:04;21.10;99.90
16955;DHT22;8594;52.052;8.354;2023-09-12T04:20:31;21.10;99.90
16955;DHT22;8594;52.052;8.354;2023-09-12T04:23:01;21.00;99.90
16955;DHT22;8594;52.052;8.354;2023-09-12T04:25:29;20.80;99.90
16955;DHT22;8594;52.052;8.354;2023-09-12T04:27:56;21.10;99.90
16955;DHT22;8594;52.052;8.354;2023-09-12T04:30:23;21.00;99.90
16955;DHT22;8594;52.052;8.354;2023-09-12T04:32:50;21.00;99.90
16955;DHT22;8594;52.052;8.354;2023-09-12T04:35:18;21.00;99.90
16955;DHT22;8594;52.052;8.354;2023-09-12T04:37:46;20.80;99.90
16955;DHT22;8594;52.052;8.354;2023-09-12T04:40:13;20.60;99.90
16955;DHT22;8594;52.052;8.354;2023-09-12T04:42:40;20.10;99.90
16955;DHT22;8594;52.052;8.354;2023-09-12T04:45:07;19.80;99.90
16955;DHT22;8594;52.052;8.354;2023-09-12T04:47:34;19.90;99.90
16955;DHT22;8594;52.052;8.354;2023-09-12T04:50:02;20.00;99.90
16955;DHT22;8594;52.052;8.354;2023-09-12T04:52:30;20.20;99.90
16955;DHT22;8594;52.052;8.354;2023-09-12T04:54:57;20.30;99.90
16955;DHT22;8594;52.052;8.354;2023-09-12T04:57:24;20.30;99.90
16955;DHT22;8594;52.052;8.354;2023-09-12T04:59:51;20.30;99.90
16955;DHT22;8594;52.052;8.354;2023-09-12T05:02:18;20.30;99.90
16955;DHT22;8594;52.052;8.354;2023-09-12T05:04:45;20.20;99.90
16955;DHT22;8594;52.052;8.354;2023-09-12T05:07:12;20.20;99.90
16955;DHT22;8594;52.052;8.354;2023-09-12T05:09:40;20.20;99.90
16955;DHT22;8594;52.052;8.354;2023-09-12T05:12:08;20.20;99.90
16955;DHT22;8594;52.052;8.354;2023-09-12T05:14:35;20.10;99.90
16955;DHT22;8594;52.052;8.354;2023-09-12T05:17:02;20.10;99.90
16955;DHT22;8594;52.052;8.354;2023-09-12T05:19:30;20.20;99.90
16955;DHT22;8594;52.052;8.354;2023-09-12T05:21:57;20.10;99.90
16955;DHT22;8594;52.052;8.354;2023-09-12T05:24:24;20.20;99.90
16955;DHT22;8594;52.052;8.354;2023-09-12T05:26:52;20.20;99.90
16955;DHT22;8594;52.052;8.354;2023-09-12T05:29:19;19.80;99.90
16955;DHT22;8594;52.052;8.354;2023-09-12T05:31:46;20.00;99.90
16955;DHT22;8594;52.052;8.354;2023-09-12T05:34:13;20.20;99.90
16955;DHT22;8594;52.052;8.354;2023-09-12T05:36:40;20.30;99.90
16955;DHT22;8594;52.052;8.354;2023-09-12T05:39:06;20.50;99.90
16955;DHT22;8594;52.052;8.354;2023-09-12T05:41:34;20.60;99.90
16955;DHT22;8594;52.052;8.354;2023-09-12T05:44:03;20.50;99.90
16955;DHT22;8594;52.052;8.354;2023-09-12T05:46:30;20.60;99.90
16955;DHT22;8594;52.052;8.354;2023-09-12T05:48:57;20.50;99.90
16955;DHT22;8594;52.052;8.354;2023-09-12T05:51:24;20.60;99.90
16955;DHT22;8594;52.052;8.354;2023-09-12T05:53:50;20.70;99.90
16955;DHT22;8594;52.052;8.354;2023-09-12T05:56:17;20.70;99.90
16955;DHT22;8594;52.052;8.354;2023-09-12T05:58:46;20.50;99.90
16955;DHT22;8594;52.052;8.354;2023-09-12T06:01:17;20.60;99.90
16955;DHT22;8594;52.052;8.354;2023-09-12T06:03:43;20.70;99.90
16955;DHT22;8594;52.052;8.354;2023-09-12T06:06:10;20.70;99.90
16955;DHT22;8594;52.052;8.354;2023-09-12T06:08:37;20.80;99.90
16955;DHT22;8594;52.052;8.354;2023-09-12T06:11:04;20.80;99.90
16955;DHT22;8594;52.052;8.354;2023-09-12T06:13:31;20.70;99.90
16955;DHT22;8594;52.052;8.354;2023-09-12T06:15:58;20.70;99.90
16955;DHT22;8594;52.052;8.354;2023-09-12T06:18:27;20.50;99.90
16955;DHT22;8594;52.052;8.354;2023-09-12T06:20:57;20.70;99.90
16955;DHT22;8594;52.052;8.354;2023-09-12T06:23:24;20.80;99.90
16955;DHT22;8594;52.052;8.354;2023-09-12T06:25:51;20.90;99.90
16955;DHT22;8594;52.052;8.354;2023-09-12T06:28:25;20.80;99.90
16955;DHT22;8594;52.052;8.354;2023-09-12T06:30:52;20.80;99.90
16955;DHT22;8594;52.052;8.354;2023-09-12T06:33:19;20.90;99.90
16955;DHT22;8594;52.052;8.354;2023-09-12T06:35:49;20.80;99.90
16955;DHT22;8594;52.052;8.354;2023-09-12T06:38:18;20.90;99.90
16955;DHT22;8594;52.052;8.354;2023-09-12T06:40:45;20.90;99.90
16955;DHT22;8594;52.052;8.354;2023-09-12T06:43:12;20.90;99.90
16955;DHT22;8594;52.052;8.354;2023-09-12T06:45:40;20.90;99.90
16955;DHT22;8594;52.052;8.354;2023-09-12T06:48:07;21.00;99.90
16955;DHT22;8594;52.052;8.354;2023-09-12T06:50:34;21.00;99.90
16955;DHT22;8594;52.052;8.354;2023-09-12T06:53:05;20.80;99.90
16955;DHT22;8594;52.052;8.354;2023-09-12T06:55:32;20.80;99.90
16955;DHT22;8594;52.052;8.354;2023-09-12T06:57:59;20.90;99.90
16955;DHT22;8594;52.052;8.354;2023-09-12T07:00:26;20.90;99.90
16955;DHT22;8594;52.052;8.354;2023-09-12T07:02:53;20.80;99.90
16955;DHT22;8594;52.052;8.354;2023-09-12T07:05:20;20.80;99.90
16955;DHT22;8594;52.052;8.354;2023-09-12T07:07:47;20.80;99.90
16955;DHT22;8594;52.052;8.354;2023-09-12T07:10:15;20.80;99.90
16955;DHT22;8594;52.052;8.354;2023-09-12T07:12:42;20.70;99.90
16955;DHT22;8594;52.052;8.354;2023-09-12T07:15:10;20.50;99.90
16955;DHT22;8594;52.052;8.354;2023-09-12T07:17:37;20.40;99.90
16955;DHT22;8594;52.052;8.354;2023-09-12T07:20:04;20.30;99.90
16955;DHT22;8594;52.052;8.354;2023-09-12T07:22:37;20.10;99.90
16955;DHT22;8594;52.052;8.354;2023-09-12T07:25:05;20.00;99.90
16955;DHT22;8594;52.052;8.354;2023-09-12T07:27:36;19.70;99.90
16955;DHT22;8594;52.052;8.354;2023-09-12T07:30:03;19.90;99.90
16955;DHT22;8594;52.052;8.354;2023-09-12T07:32:31;19.90;99.90
16955;DHT22;8594;52.052;8.354;2023-09-12T07:34:57;20.00;99.90
16955;DHT22;8594;52.052;8.354;2023-09-12T07:37:24;20.10;99.90
16955;DHT22;8594;52.052;8.354;2023-09-12T07:39:51;20.20;99.90
16955;DHT22;8594;52.052;8.354;2023-09-12T07:42:21;20.20;99.90
16955;DHT22;8594;52.052;8.354;2023-09-12T07:44:50;20.20;99.90
16955;DHT22;8594;52.052;8.354;2023-09-12T07:47:18;20.30;99.90
16955;DHT22;8594;52.052;8.354;2023-09-12T07:49:45;20.40;99.90
16955;DHT22;8594;52.052;8.354;2023-09-12T07:52:12;20.40;99.90
16955;DHT22;8594;52.052;8.354;2023-09-12T07:54:38;20.50;99.90
16955;DHT22;8594;52.052;8.354;2023-09-12T07:57:05;20.50;99.90
16955;DHT22;8594;52.052;8.354;2023-09-12T07:59:33;20.40;99.90
16955;DHT22;8594;52.052;8.354;2023-09-12T08:02:02;20.30;99.90
16955;DHT22;8594;52.052;8.354;2023-09-12T08:04:29;20.30;99.90
16955;DHT22;8594;52.052;8.354;2023-09-12T08:06:56;20.30;99.90
16955;DHT22;8594;52.052;8.354;2023-09-12T08:09:23;20.20;99.90
16955;DHT22;8594;52.052;8.354;2023-09-12T08:11:49;20.20;99.90
16955;DHT22;8594;52.052;8.354;2023-09-12T08:14:16;20.20;99.90
16955;DHT22;8594;52.052;8.354;2023-09-12T08:16:45;20.10;99.90
16955;DHT22;8594;52.052;8.354;2023-09-12T08:19:14;20.10;99.90
16955;DHT22;8594;52.052;8.354;2023-09-12T08:21:40;20.10;99.90
16955;DHT22;8594;52.052;8.354;2023-09-12T08:24:07;19.90;99.90
16955;DHT22;8594;52.052;8.354;2023-09-12T08:26:34;19.60;99.90
16955;DHT22;8594;52.052;8.354;2023-09-12T08:29:01;19.70;99.90
16955;DHT22;8594;52.052;8.354;2023-09-12T08:31:28;19.90;99.90
16955;DHT22;8594;52.052;8.354;2023-09-12T08:33:55;19.90;99.90
16955;DHT22;8594;52.052;8.354;2023-09-12T08:36:23;19.90;99.90
16955;DHT22;8594;52.052;8.354;2023-09-12T08:38:50;20.00;99.90
16955;DHT22;8594;52.052;8.354;2023-09-12T08:41:16;20.00;99.90
16955;DHT22;8594;52.052;8.354;2023-09-12T08:43:44;20.00;99.90
16955;DHT22;8594;52.052;8.354;2023-09-12T08:46:12;20.20;99.90
16955;DHT22;8594;52.052;8.354;2023-09-12T08:48:42;20.30;99.90
16955;DHT22;8594;52.052;8.354;2023-09-12T08:51:10;20.30;99.90
16955;DHT22;8594;52.052;8.354;2023-09-12T08:53:40;20.40;99.90
16955;DHT22;8594;52.052;8.354;2023-09-12T08:56:07;20.40;99.90
16955;DHT22;8594;52.052;8.354;2023-09-12T08:58:35;20.30;99.90
16955;DHT22;8594;52.052;8.354;2023-09-12T09:01:03;20.40;99.90
16955;DHT22;8594;52.052;8.354;2023-09-12T09:03:33;20.40;99.90
16955;DHT22;8594;52.052;8.354;2023-09-12T09:06:01;20.40;99.90
16955;DHT22;8594;52.052;8.354;2023-09-12T09:08:29;20.40;99.90
16955;DHT22;8594;52.052;8.354;2023-09-12T09:11:01;20.30;99.90
16955;DHT22;8594;52.052;8.354;2023-09-12T09:13:29;20.30;99.90
16955;DHT22;8594;52.052;8.354;2023-09-12T09:16:12;20.30;99.90
16955;DHT22;8594;52.052;8.354;2023-09-12T09:18:51;20.20;99.90
16955;DHT22;8594;52.052;8.354;2023-09-12T09:21:24;20.20;99.90
16955;DHT22;8594;52.052;8.354;2023-09-12T09:23:52;20.20;99.90
16955;DHT22;8594;52.052;8.354;2023-09-12T09:26:21;20.20;99.90
16955;DHT22;8594;52.052;8.354;2023-09-12T09:29:02;20.20;99.90
16955;DHT22;8594;52.052;8.354;2023-09-12T09:31:30;20.20;99.90
16955;DHT22;8594;52.052;8.354;2023-09-12T09:33:59;20.30;99.90
16955;DHT22;8594;52.052;8.354;2023-09-12T09:36:26;20.00;99.90
16955;DHT22;8594;52.052;8.354;2023-09-12T09:38:54;19.90;99.90
16955;DHT22;8594;52.052;8.354;2023-09-12T09:41:22;20.10;99.90
16955;DHT22;8594;52.052;8.354;2023-09-12T09:43:50;20.20;99.90
16955;DHT22;8594;52.052;8.354;2023-09-12T09:46:17;20.10;99.90
16955;DHT22;8594;52.052;8.354;2023-09-12T09:48:49;20.20;99.90
16955;DHT22;8594;52.052;8.354;2023-09-12T09:51:16;20.10;99.90
16955;DHT22;8594;52.052;8.354;2023-09-12T09:53:44;20.00;99.90
16955;DHT22;8594;52.052;8.354;2023-09-12T09:56:14;19.80;99.90
16955;DHT22;8594;52.052;8.354;2023-09-12T09:58:50;20.00;99.90
16955;DHT22;8594;52.052;8.354;2023-09-12T10:01:19;20.10;99.90
16955;DHT22;8594;52.052;8.354;2023-09-12T10:03:48;20.20;99.90
16955;DHT22;8594;52.052;8.354;2023-09-12T10:06:17;20.40;99.90
16955;DHT22;8594;52.052;8.354;2023-09-12T10:08:49;20.40;99.90
16955;DHT22;8594;52.052;8.354;2023-09-12T10:11:19;20.40;99.90
16955;DHT22;8594;52.052;8.354;2023-09-12T10:13:54;20.40;99.90
16955;DHT22;8594;52.052;8.354;2023-09-12T10:16:24;20.30;99.90
16955;DHT22;8594;52.052;8.354;2023-09-12T10:18:58;20.40;99.90
16955;DHT22;8594;52.052;8.354;2023-09-12T10:21:29;20.40;99.90
16955;DHT22;8594;52.052;8.354;2023-09-12T10:23:59;20.40;99.90
16955;DHT22;8594;52.052;8.354;2023-09-12T10:26:30;20.30;99.90
16955;DHT22;8594;52.052;8.354;2023-09-12T10:28:59;20.20;99.90
16955;DHT22;8594;52.052;8.354;2023-09-12T10:31:29;20.10;99.90
16955;DHT22;8594;52.052;8.354;2023-09-12T10:33:58;20.00;99.90
16955;DHT22;8594;52.052;8.354;2023-09-12T10:36:28;20.10;99.90
16955;DHT22;8594;52.052;8.354;2023-09-12T10:38:57;20.30;99.90
16955;DHT22;8594;52.052;8.354;2023-09-12T10:41:26;20.40;99.90
16955;DHT22;8594;52.052;8.354;2023-09-12T10:43:54;20.50;99.90
16955;DHT22;8594;52.052;8.354;2023-09-12T10:46:25;20.50;99.90
16955;DHT22;8594;52.052;8.354;2023-09-12T10:48:53;20.50;99.90
16955;DHT22;8594;52.052;8.354;2023-09-12T10:51:20;20.60;99.90
16955;DHT22;8594;52.052;8.354;2023-09-12T10:53:48;20.50;99.90
16955;DHT22;8594;52.052;8.354;2023-09-12T10:56:18;20.40;99.90
16955;DHT22;8594;52.052;8.354;2023-09-12T10:59:10;20.60;99.90
16955;DHT22;8594;52.052;8.354;2023-09-12T11:01:43;20.70;99.90
16955;DHT22;8594;52.052;8.354;2023-09-12T11:04:34;20.90;99.90
16955;DHT22;8594;52.052;8.354;2023-09-12T11:07:30;21.10;99.90
16955;DHT22;8594;52.052;8.354;2023-09-12T11:10:20;21.20;99.90
16955;DHT22;8594;52.052;8.354;2023-09-12T11:12:49;21.30;99.90
16955;DHT22;8594;52.052;8.354;2023-09-12T11:15:18;21.50;99.90
16955;DHT22;8594;52.052;8.354;2023-09-12T11:17:48;21.80;99.90
16955;DHT22;8594;52.052;8.354;2023-09-12T11:20:16;22.00;99.90
16955;DHT22;8594;52.052;8.354;2023-09-12T11:22:44;21.90;99.90
16955;DHT22;8594;52.052;8.354;2023-09-12T11:25:16;22.10;99.90
16955;DHT22;8594;52.052;8.354;2023-09-12T11:28:04;22.40;99.90
16955;DHT22;8594;52.052;8.354;2023-09-12T11:30:32;22.70;99.90
16955;DHT22;8594;52.052;8.354;2023-09-12T11:33:04;22.80;99.90
16955;DHT22;8594;52.052;8.354;2023-09-12T11:35:37;23.00;99.90
16955;DHT22;8594;52.052;8.354;2023-09-12T11:38:09;22.80;99.90
16955;DHT22;8594;52.052;8.354;2023-09-12T11:40:44;23.10;99.90
16955;DHT22;8594;52.052;8.354;2023-09-12T11:43:20;23.20;99.90
16955;DHT22;8594;52.052;8.354;2023-09-12T11:45:49;23.30;99.90
16955;DHT22;8594;52.052;8.354;2023-09-12T11:48:19;23.40;99.90
16955;DHT22;8594;52.052;8.354;2023-09-12T11:50:51;23.30;99.90
16955;DHT22;8594;52.052;8.354;2023-09-12T11:53:21;23.50;99.90
16955;DHT22;8594;52.052;8.354;2023-09-12T11:55:53;23.60;99.90
16955;DHT22;8594;52.052;8.354;2023-09-12T11:58:21;23.70;99.90
16955;DHT22;8594;52.052;8.354;2023-09-12T12:00:50;23.50;99.90
16955;DHT22;8594;52.052;8.354;2023-09-12T12:03:21;23.60;99.90
16955;DHT22;8594;52.052;8.354;2023-09-12T12:05:49;23.60;99.90
16955;DHT22;8594;52.052;8.354;2023-09-12T12:08:18;23.60;99.90
16955;DHT22;8594;52.052;8.354;2023-09-12T12:10:49;23.60;99.90
16955;DHT22;8594;52.052;8.354;2023-09-12T12:13:17;23.80;99.90
16955;DHT22;8594;52.052;8.354;2023-09-12T12:15:44;23.80;99.90
16955;DHT22;8594;52.052;8.354;2023-09-12T12:18:11;23.70;99.90
16955;DHT22;8594;52.052;8.354;2023-09-12T12:20:40;23.80;99.90
16955;DHT22;8594;52.052;8.354;2023-09-12T12:23:07;23.90;99.90
16955;DHT22;8594;52.052;8.354;2023-09-12T12:25:34;23.70;99.90
16955;DHT22;8594;52.052;8.354;2023-09-12T12:28:02;23.70;99.90
16955;DHT22;8594;52.052;8.354;2023-09-12T12:30:30;23.80;99.90
16955;DHT22;8594;52.052;8.354;2023-09-12T12:33:00;24.00;99.90
16955;DHT22;8594;52.052;8.354;2023-09-12T12:35:32;24.00;99.90
16955;DHT22;8594;52.052;8.354;2023-09-12T12:38:03;24.00;99.90
16955;DHT22;8594;52.052;8.354;2023-09-12T12:40:30;23.90;99.90
16955;DHT22;8594;52.052;8.354;2023-09-12T12:42:57;23.80;99.90
16955;DHT22;8594;52.052;8.354;2023-09-12T12:45:24;24.10;99.90
16955;DHT22;8594;52.052;8.354;2023-09-12T12:47:54;24.10;99.90
16955;DHT22;8594;52.052;8.354;2023-09-12T12:50:23;24.30;99.90
16955;DHT22;8594;52.052;8.354;2023-09-12T12:52:50;24.50;99.90
16955;DHT22;8594;52.052;8.354;2023-09-12T12:55:21;24.70;99.90
16955;DHT22;8594;52.052;8.354;2023-09-12T12:57:51;24.50;99.90
16955;DHT22;8594;52.052;8.354;2023-09-12T13:00:18;24.70;99.90
16955;DHT22;8594;52.052;8.354;2023-09-12T13:02:46;24.70;99.90
16955;DHT22;8594;52.052;8.354;2023-09-12T13:05:20;24.70;99.90
16955;DHT22;8594;52.052;8.354;2023-09-12T13:07:51;24.90;99.90
16955;DHT22;8594;52.052;8.354;2023-09-12T13:10:20;24.80;99.90
16955;DHT22;8594;52.052;8.354;2023-09-12T13:12:48;24.90;99.90
16955;DHT22;8594;52.052;8.354;2023-09-12T13:15:16;24.90;99.90
16955;DHT22;8594;52.052;8.354;2023-09-12T13:17:44;24.80;99.90
16955;DHT22;8594;52.052;8.354;2023-09-12T13:20:11;24.80;99.90
16955;DHT22;8594;52.052;8.354;2023-09-12T13:22:38;24.70;99.90
16955;DHT22;8594;52.052;8.354;2023-09-12T13:25:06;24.70;99.90
16955;DHT22;8594;52.052;8.354;2023-09-12T13:27:35;24.80;99.90
16955;DHT22;8594;52.052;8.354;2023-09-12T13:30:03;24.90;99.90
16955;DHT22;8594;52.052;8.354;2023-09-12T13:32:31;25.20;99.90
16955;DHT22;8594;52.052;8.354;2023-09-12T13:34:58;25.10;99.90
16955;DHT22;8594;52.052;8.354;2023-09-12T13:37:25;24.80;99.90
16955;DHT22;8594;52.052;8.354;2023-09-12T13:39:53;25.00;99.90
16955;DHT22;8594;52.052;8.354;2023-09-12T13:42:20;25.10;99.90
16955;DHT22;8594;52.052;8.354;2023-09-12T13:44:49;25.10;99.90
16955;DHT22;8594;52.052;8.354;2023-09-12T13:47:16;25.10;99.90
16955;DHT22;8594;52.052;8.354;2023-09-12T13:49:47;25.20;99.90
16955;DHT22;8594;52.052;8.354;2023-09-12T13:52:14;25.20;99.90
16955;DHT22;8594;52.052;8.354;2023-09-12T13:54:41;25.10;99.90
16955;DHT22;8594;52.052;8.354;2023-09-12T13:57:07;25.00;99.90
16955;DHT22;8594;52.052;8.354;2023-09-12T13:59:34;25.00;99.90
16955;DHT22;8594;52.052;8.354;2023-09-12T14:02:03;24.90;99.90
16955;DHT22;8594;52.052;8.354;2023-09-12T14:04:30;24.90;99.90
16955;DHT22;8594;52.052;8.354;2023-09-12T14:06:57;24.80;99.90
16955;DHT22;8594;52.052;8.354;2023-09-12T14:09:24;24.90;99.90
16955;DHT22;8594;52.052;8.354;2023-09-12T14:11:51;25.00;99.90
16955;DHT22;8594;52.052;8.354;2023-09-12T14:14:17;25.00;99.90
16955;DHT22;8594;52.052;8.354;2023-09-12T14:16:45;25.10;99.90
16955;DHT22;8594;52.052;8.354;2023-09-12T14:19:13;25.00;99.90
16955;DHT22;8594;52.052;8.354;2023-09-12T14:21:40;25.00;99.90
16955;DHT22;8594;52.052;8.354;2023-09-12T14:24:08;24.90;99.90
16955;DHT22;8594;52.052;8.354;2023-09-12T14:26:34;25.00;99.90
16955;DHT22;8594;52.052;8.354;2023-09-12T14:29:01;25.00;99.90
16955;DHT22;8594;52.052;8.354;2023-09-12T14:31:28;24.90;99.90
16955;DHT22;8594;52.052;8.354;2023-09-12T14:33:55;24.90;99.90
16955;DHT22;8594;52.052;8.354;2023-09-12T14:36:24;24.90;99.90
16955;DHT22;8594;52.052;8.354;2023-09-12T14:38:51;25.10;99.90
16955;DHT22;8594;52.052;8.354;2023-09-12T14:41:18;25.00;99.90
16955;DHT22;8594;52.052;8.354;2023-09-12T14:43:45;24.90;99.90
16955;DHT22;8594;52.052;8.354;2023-09-12T14:46:11;24.90;99.90
16955;DHT22;8594;52.052;8.354;2023-09-12T14:48:38;25.00;99.90
16955;DHT22;8594;52.052;8.354;2023-09-12T14:51:05;24.90;99.90
16955;DHT22;8594;52.052;8.354;2023-09-12T14:53:46;25.00;99.90
16955;DHT22;8594;52.052;8.354;2023-09-12T14:56:15;25.00;99.90
16955;DHT22;8594;52.052;8.354;2023-09-12T14:58:44;25.10;99.90
16955;DHT22;8594;52.052;8.354;2023-09-12T15:01:11;25.10;99.90
16955;DHT22;8594;52.052;8.354;2023-09-12T15:03:38;25.00;99.90
16955;DHT22;8594;52.052;8.354;2023-09-12T15:06:07;25.00;99.90
16955;DHT22;8594;52.052;8.354;2023-09-12T15:08:35;25.10;99.90
16955;DHT22;8594;52.052;8.354;2023-09-12T15:11:02;25.10;99.90
16955;DHT22;8594;52.052;8.354;2023-09-12T15:13:29;25.00;99.90
16955;DHT22;8594;52.052;8.354;2023-09-12T15:15:56;24.90;99.90
16955;DHT22;8594;52.052;8.354;2023-09-12T15:18:23;24.90;99.90
16955;DHT22;8594;52.052;8.354;2023-09-12T15:20:51;24.80;99.90
16955;DHT22;8594;52.052;8.354;2023-09-12T15:23:19;24.90;99.90
16955;DHT22;8594;52.052;8.354;2023-09-12T15:25:49;25.10;99.90
16955;DHT22;8594;52.052;8.354;2023-09-12T15:28:17;25.00;99.90
16955;DHT22;8594;52.052;8.354;2023-09-12T15:30:45;25.10;99.90
16955;DHT22;8594;52.052;8.354;2023-09-12T15:33:11;25.10;99.90
16955;DHT22;8594;52.052;8.354;2023-09-12T15:35:42;25.00;99.90
16955;DHT22;8594;52.052;8.354;2023-09-12T15:38:08;25.00;99.90
16955;DHT22;8594;52.052;8.354;2023-09-12T15:40:35;24.90;99.90
16955;DHT22;8594;52.052;8.354;2023-09-12T15:43:04;24.90;99.90
16955;DHT22;8594;52.052;8.354;2023-09-12T15:45:31;24.80;99.90
16955;DHT22;8594;52.052;8.354;2023-09-12T15:47:58;24.80;99.90
16955;DHT22;8594;52.052;8.354;2023-09-12T15:50:24;24.90;99.90
16955;DHT22;8594;52.052;8.354;2023-09-12T15:52:51;24.90;99.90
16955;DHT22;8594;52.052;8.354;2023-09-12T15:55:18;25.00;99.90